Time;durP1;ratioP1;P1;durP2;ratioP2;P2;SDS_P1;SDS_P2;PMS_P1;PMS_P2;Temp;Humidity;BMP_temperature;BMP_pressure;BME280_temperature;BME280_humidity;BME280_pressure;Samples;Min_cycle;Max_cycle;Signal;HPM_P1;HPM_P2
2023/01/24 00:00:43;;;;;;;29.43;16.20;;;3.20;99.90;;;;;;5064720;28;20184;-74
2023/01/24 00:03:12;;;;;;;23.60;14.30;;;3.10;99.90;;;;;;5051929;28;20178;-75
2023/01/24 00:05:39;;;;;;;29.27;14.90;;;3.20;99.90;;;;;;5052220;28;20170;-74
2023/01/24 00:08:04;;;;;;;66.70;17.10;;;3.20;99.90;;;;;;5051163;28;20453;-75
2023/01/24 00:10:31;;;;;;;21.20;14.73;;;3.20;99.90;;;;;;5065029;28;20421;-74
2023/01/24 00:12:57;;;;;;;26.50;15.70;;;3.20;99.90;;;;;;5053457;28;20212;-74
2023/01/24 00:15:22;;;;;;;26.43;15.80;;;3.20;99.90;;;;;;5063704;28;20425;-74
2023/01/24 00:17:48;;;;;;;22.47;14.57;;;3.10;99.90;;;;;;5071033;28;20222;-75
2023/01/24 00:20:13;;;;;;;26.77;14.87;;;3.10;99.90;;;;;;5070651;28;20182;-74
2023/01/24 00:22:38;;;;;;;24.03;15.63;;;3.10;99.90;;;;;;5070739;28;20203;-74
2023/01/24 00:25:05;;;;;;;27.30;16.67;;;3.20;99.90;;;;;;5070558;28;20817;-74
2023/01/24 00:27:31;;;;;;;23.93;15.07;;;3.10;99.90;;;;;;5071119;28;20180;-75
2023/01/24 00:29:57;;;;;;;22.03;14.10;;;3.20;99.90;;;;;;5070865;28;20416;-75
2023/01/24 00:32:22;;;;;;;25.40;15.70;;;3.20;99.90;;;;;;5070747;28;20452;-76
2023/01/24 00:34:48;;;;;;;28.40;16.10;;;3.10;99.90;;;;;;5070571;28;20799;-76
2023/01/24 00:37:13;;;;;;;32.57;19.50;;;3.10;99.90;;;;;;5070352;28;20254;-75
2023/01/24 00:39:39;;;;;;;29.27;19.90;;;3.10;99.90;;;;;;5070640;28;20183;-75
2023/01/24 00:42:04;;;;;;;27.83;16.13;;;3.10;99.90;;;;;;5068695;28;20192;-74
2023/01/24 00:44:30;;;;;;;25.23;17.00;;;3.20;99.90;;;;;;5070474;28;20724;-74
2023/01/24 00:46:55;;;;;;;31.30;19.50;;;3.10;99.90;;;;;;5069731;28;20246;-74
2023/01/24 00:49:21;;;;;;;31.40;18.87;;;3.10;99.90;;;;;;5066327;28;20529;-74
2023/01/24 00:51:46;;;;;;;27.53;17.30;;;3.10;99.90;;;;;;5049989;28;20243;-75
2023/01/24 00:54:12;;;;;;;32.07;16.87;;;3.10;99.90;;;;;;5053386;28;20727;-75
2023/01/24 00:56:37;;;;;;;26.73;16.60;;;3.10;99.90;;;;;;5054299;28;20230;-74
2023/01/24 00:59:03;;;;;;;29.07;16.30;;;3.10;99.90;;;;;;5054276;28;20216;-74
2023/01/24 01:01:28;;;;;;;27.07;15.53;;;3.10;99.90;;;;;;5053516;28;20792;-75
2023/01/24 01:03:56;;;;;;;27.37;15.50;;;3.10;99.90;;;;;;5053287;28;20187;-74
2023/01/24 01:06:22;;;;;;;24.37;15.10;;;3.10;99.90;;;;;;5057687;28;20198;-75
2023/01/24 01:08:47;;;;;;;24.90;15.43;;;3.10;99.90;;;;;;5072690;28;20448;-74
2023/01/24 01:11:13;;;;;;;24.30;15.33;;;3.10;99.90;;;;;;5072998;28;20970;-74
2023/01/24 01:13:39;;;;;;;27.30;13.80;;;3.10;99.90;;;;;;5073713;28;20194;-75
2023/01/24 01:16:10;;;;;;;28.13;16.50;;;3.10;99.90;;;;;;5073825;28;20742;-74
2023/01/24 01:18:36;;;;;;;27.30;15.33;;;3.10;99.90;;;;;;5068857;28;20177;-75
2023/01/24 01:21:02;;;;;;;28.27;14.87;;;3.10;99.90;;;;;;5071271;28;21007;-74
2023/01/24 01:23:29;;;;;;;23.70;14.33;;;3.10;99.90;;;;;;5073986;28;20436;-75
2023/01/24 01:25:59;;;;;;;21.27;13.90;;;3.10;99.90;;;;;;5074181;28;20420;-74
2023/01/24 01:28:25;;;;;;;26.47;14.57;;;3.10;99.90;;;;;;5046848;28;20446;-75
2023/01/24 01:30:52;;;;;;;27.43;16.53;;;3.10;99.90;;;;;;5054151;28;20812;-74
2023/01/24 01:33:18;;;;;;;25.93;16.07;;;3.10;99.90;;;;;;5064806;28;20191;-74
2023/01/24 01:35:43;;;;;;;25.43;15.47;;;3.00;99.90;;;;;;5073917;28;20410;-74
2023/01/24 01:38:09;;;;;;;23.57;14.10;;;3.10;99.90;;;;;;5063762;28;20187;-74
2023/01/24 01:40:35;;;;;;;23.80;14.63;;;3.10;99.90;;;;;;5053228;28;20196;-74
2023/01/24 01:43:01;;;;;;;28.43;16.40;;;3.10;99.90;;;;;;5053669;28;20200;-74
2023/01/24 01:45:40;;;;;;;27.33;15.83;;;3.10;99.90;;;;;;5054085;28;20482;-75
2023/01/24 01:48:12;;;;;;;26.07;15.97;;;3.10;99.90;;;;;;5053756;28;20219;-74
2023/01/24 01:50:44;;;;;;;27.23;15.43;;;3.10;99.90;;;;;;5054006;28;20426;-74
2023/01/24 01:53:11;;;;;;;26.80;15.00;;;3.10;99.90;;;;;;5053303;28;20420;-75
2023/01/24 01:55:40;;;;;;;26.87;16.30;;;3.00;99.90;;;;;;5053804;28;21003;-74
2023/01/24 01:58:07;;;;;;;28.27;16.00;;;3.10;99.90;;;;;;5070841;28;20434;-74
2023/01/24 03:36:38;;;;;;;27.23;15.57;;;3.00;99.90;;;;;;5043951;28;20524;-74
2023/01/24 03:41:48;;;;;;;29.33;15.57;;;2.90;99.90;;;;;;5041248;28;20622;-74
2023/01/24 03:44:13;;;;;;;26.53;15.87;;;2.90;99.90;;;;;;5050783;28;20428;-74
2023/01/24 03:46:39;;;;;;;28.23;16.70;;;2.90;99.90;;;;;;5051246;28;20187;-74
2023/01/24 03:49:06;;;;;;;31.73;17.70;;;2.80;99.90;;;;;;5042976;28;20275;-73
2023/01/24 03:54:16;;;;;;;25.23;14.97;;;2.80;99.90;;;;;;5040617;28;20449;-73
2023/01/24 03:56:41;;;;;;;29.30;14.90;;;2.80;99.90;;;;;;5046104;28;20471;-74
2023/01/24 03:59:07;;;;;;;31.00;15.60;;;2.80;99.90;;;;;;5047822;28;20197;-74
2023/01/24 04:01:32;;;;;;;29.33;16.27;;;2.80;99.90;;;;;;5049832;28;20649;-74
2023/01/24 04:03:58;;;;;;;28.50;16.73;;;2.80;99.90;;;;;;5050745;28;20216;-73
2023/01/24 04:06:23;;;;;;;29.20;14.47;;;2.80;99.90;;;;;;5050546;28;20266;-74
2023/01/24 04:08:50;;;;;;;23.70;14.90;;;2.80;99.90;;;;;;5050773;28;20663;-74
2023/01/24 04:11:16;;;;;;;31.10;17.10;;;2.80;99.90;;;;;;5050431;28;20297;-74
2023/01/24 04:13:42;;;;;;;26.30;15.80;;;2.80;99.90;;;;;;5042458;28;20797;-73
2023/01/24 04:16:08;;;;;;;33.00;17.60;;;2.80;99.90;;;;;;5042496;28;20473;-73
2023/01/24 04:18:35;;;;;;;28.60;16.30;;;2.80;99.90;;;;;;5050726;28;20730;-74
2023/01/24 04:21:02;;;;;;;27.03;16.03;;;2.90;99.90;;;;;;5043342;28;20270;-74
2023/01/24 04:23:28;;;;;;;25.87;15.83;;;2.80;99.90;;;;;;5049567;28;20458;-74
2023/01/24 04:25:56;;;;;;;27.47;16.53;;;2.80;99.90;;;;;;5050697;28;20501;-74
2023/01/24 04:28:23;;;;;;;25.80;16.10;;;2.80;99.90;;;;;;5049941;28;20187;-74
2023/01/24 04:30:48;;;;;;;27.17;15.47;;;2.80;99.90;;;;;;5050361;28;20455;-74
2023/01/24 04:33:14;;;;;;;26.80;14.97;;;2.80;99.90;;;;;;5049279;28;20434;-74
2023/01/24 04:35:39;;;;;;;26.23;15.13;;;2.80;99.90;;;;;;5050038;28;20196;-73
2023/01/24 04:38:05;;;;;;;26.87;16.50;;;2.80;99.90;;;;;;5042713;28;20558;-74
2023/01/24 04:40:30;;;;;;;30.93;16.07;;;2.80;99.90;;;;;;5049623;28;20820;-74
2023/01/24 04:42:57;;;;;;;28.80;16.33;;;2.80;99.90;;;;;;5043585;28;20192;-73
2023/01/24 04:45:23;;;;;;;27.80;15.57;;;2.80;99.90;;;;;;5048630;28;20277;-74
2023/01/24 04:47:48;;;;;;;28.07;16.20;;;2.80;99.90;;;;;;5050344;28;20438;-74
2023/01/24 04:50:14;;;;;;;31.67;16.03;;;2.80;99.90;;;;;;5049430;28;20432;-73
2023/01/24 04:52:40;;;;;;;27.70;14.80;;;2.80;99.90;;;;;;5042655;28;20700;-73
2023/01/24 04:55:06;;;;;;;29.33;16.60;;;2.80;99.90;;;;;;5049545;28;20189;-73
2023/01/24 04:57:31;;;;;;;25.77;15.40;;;2.80;99.90;;;;;;5049086;28;20208;-73
2023/01/24 04:59:57;;;;;;;28.00;16.37;;;2.80;99.90;;;;;;5050574;28;20428;-74
2023/01/24 05:02:22;;;;;;;29.50;15.83;;;2.80;99.90;;;;;;5049895;28;20522;-74
2023/01/24 05:04:48;;;;;;;28.13;15.80;;;2.90;99.90;;;;;;5050360;28;20659;-74
2023/01/24 05:07:13;;;;;;;29.43;16.50;;;2.80;99.90;;;;;;5051352;28;20186;-73
2023/01/24 05:09:39;;;;;;;27.90;16.07;;;2.80;99.90;;;;;;5051569;28;20225;-74
2023/01/24 05:12:05;;;;;;;28.67;15.60;;;2.80;99.90;;;;;;5050403;28;20224;-73
2023/01/24 05:14:30;;;;;;;31.50;18.20;;;2.80;99.90;;;;;;5042160;28;20193;-74
2023/01/24 05:16:56;;;;;;;31.73;16.07;;;2.80;99.90;;;;;;5051142;28;20297;-74
2023/01/24 05:19:22;;;;;;;30.13;17.40;;;2.80;99.90;;;;;;5050448;28;20186;-74
2023/01/24 05:21:47;;;;;;;31.63;17.33;;;2.80;99.90;;;;;;5050318;28;20231;-74
2023/01/24 05:24:13;;;;;;;30.50;18.07;;;2.80;99.90;;;;;;5049671;28;20971;-73
2023/01/24 05:26:38;;;;;;;28.03;15.77;;;2.70;99.90;;;;;;5049973;28;20272;-74
2023/01/24 05:29:04;;;;;;;29.90;17.50;;;2.70;99.90;;;;;;5050201;28;20195;-73
2023/01/24 05:31:29;;;;;;;33.60;18.40;;;2.70;99.90;;;;;;5049580;28;20283;-74
2023/01/24 05:33:55;;;;;;;30.07;17.83;;;2.70;99.90;;;;;;5049837;28;20194;-74
2023/01/24 05:36:23;;;;;;;37.13;17.47;;;2.70;99.90;;;;;;5047970;28;20247;-74
2023/01/24 05:38:48;;;;;;;31.17;17.80;;;2.70;99.90;;;;;;5049879;28;20193;-74
2023/01/24 05:41:16;;;;;;;32.83;17.27;;;2.70;99.90;;;;;;5051945;28;20436;-73
2023/01/24 05:43:42;;;;;;;31.63;17.80;;;2.80;99.90;;;;;;5051709;28;20188;-73
2023/01/24 05:46:13;;;;;;;32.47;18.20;;;2.70;99.90;;;;;;5053547;28;20532;-74
2023/01/24 05:48:40;;;;;;;30.00;18.13;;;2.70;99.90;;;;;;5026238;28;20426;-74
2023/01/24 05:51:09;;;;;;;30.70;17.20;;;2.70;99.90;;;;;;5049146;28;20992;-74
2023/01/24 05:53:37;;;;;;;31.27;17.00;;;2.70;99.90;;;;;;5052454;28;20941;-74
2023/01/24 05:56:05;;;;;;;35.33;18.80;;;2.70;99.90;;;;;;5053182;28;20494;-74
2023/01/24 05:58:37;;;;;;;32.63;17.93;;;2.70;99.90;;;;;;5036624;28;21311;-74
2023/01/24 06:01:13;;;;;;;30.70;17.13;;;2.80;99.90;;;;;;5053145;28;20435;-74
2023/01/24 06:03:40;;;;;;;31.93;18.30;;;2.70;99.90;;;;;;5036977;28;20477;-74
2023/01/24 06:06:07;;;;;;;34.80;18.53;;;2.70;99.90;;;;;;5053137;28;20435;-74
2023/01/24 06:08:33;;;;;;;33.80;17.37;;;2.70;99.90;;;;;;5044496;28;20559;-73
2023/01/24 06:11:07;;;;;;;28.70;16.80;;;2.70;99.90;;;;;;5052823;28;20484;-73
2023/01/24 06:13:33;;;;;;;33.70;18.63;;;2.70;99.90;;;;;;5049795;28;20197;-73
2023/01/24 06:16:06;;;;;;;34.50;17.47;;;2.70;99.90;;;;;;5039566;28;20426;-74
2023/01/24 06:18:32;;;;;;;44.10;20.70;;;2.70;99.90;;;;;;5044422;28;20425;-73
2023/01/24 06:20:58;;;;;;;31.80;18.90;;;2.70;99.90;;;;;;5053004;28;20798;-74
2023/01/24 06:23:26;;;;;;;35.63;17.83;;;2.70;99.90;;;;;;5044399;28;20456;-74
2023/01/24 06:25:53;;;;;;;33.17;17.73;;;2.80;99.90;;;;;;5047207;28;20463;-74
2023/01/24 06:28:18;;;;;;;35.73;19.57;;;2.80;99.90;;;;;;5048320;28;20526;-74
2023/01/24 06:30:50;;;;;;;31.20;18.40;;;2.80;99.90;;;;;;5048985;28;20559;-74
2023/01/24 06:33:37;;;;;;;33.13;17.33;;;2.80;99.90;;;;;;5027839;28;20217;-72
2023/01/24 06:36:03;;;;;;;30.17;16.00;;;2.80;99.90;;;;;;5033197;28;20468;-73
2023/01/24 06:38:29;;;;;;;31.30;17.20;;;2.80;99.90;;;;;;5040512;28;20450;-75
2023/01/24 06:40:57;;;;;;;36.00;17.00;;;2.80;99.90;;;;;;5045521;28;20231;-75
2023/01/24 06:43:23;;;;;;;29.83;17.70;;;2.80;99.90;;;;;;5051585;28;20214;-75
2023/01/24 06:45:49;;;;;;;35.77;18.50;;;2.80;99.90;;;;;;5051176;28;20958;-74
2023/01/24 06:48:14;;;;;;;32.07;17.27;;;2.80;99.90;;;;;;5043064;28;20459;-72
2023/01/24 06:50:40;;;;;;;28.90;17.53;;;2.80;99.90;;;;;;5051700;28;20675;-72
2023/01/24 06:53:07;;;;;;;33.40;18.60;;;2.80;99.90;;;;;;5044040;28;20184;-73
2023/01/24 06:55:33;;;;;;;42.50;21.07;;;2.80;99.90;;;;;;5043546;28;20192;-72
2023/01/24 06:58:00;;;;;;;32.33;17.90;;;2.80;99.90;;;;;;5052332;28;20471;-72
2023/01/24 07:00:28;;;;;;;29.53;17.13;;;2.80;99.90;;;;;;5043756;28;20484;-73
2023/01/24 07:03:07;;;;;;;42.83;23.00;;;2.80;99.90;;;;;;5046605;28;20484;-72
2023/01/24 07:05:35;;;;;;;36.17;19.80;;;2.80;99.90;;;;;;5050395;28;20775;-72
2023/01/24 07:08:01;;;;;;;33.83;18.33;;;2.90;99.90;;;;;;5043788;28;20438;-73
2023/01/24 07:10:26;;;;;;;34.73;18.10;;;2.80;99.90;;;;;;5051269;28;20438;-73
2023/01/24 07:12:52;;;;;;;34.00;19.17;;;2.80;99.90;;;;;;5051353;28;20441;-73
2023/01/24 07:15:17;;;;;;;31.17;18.60;;;2.80;99.90;;;;;;5051377;28;20197;-72
2023/01/24 07:17:43;;;;;;;30.37;17.33;;;2.90;99.90;;;;;;5051848;28;20208;-72
2023/01/24 07:20:11;;;;;;;33.13;18.83;;;2.80;99.90;;;;;;5051737;28;20284;-73
2023/01/24 07:22:37;;;;;;;34.53;17.97;;;2.90;99.90;;;;;;5050867;28;20458;-71
2023/01/24 07:25:14;;;;;;;31.90;16.07;;;2.90;99.90;;;;;;5051439;28;20449;-73
2023/01/24 07:27:40;;;;;;;40.03;17.90;;;3.00;99.90;;;;;;5051429;28;20961;-73
2023/01/24 07:30:06;;;;;;;28.63;16.50;;;2.90;99.90;;;;;;5051571;28;20437;-73
2023/01/24 07:32:32;;;;;;;29.00;16.97;;;2.90;99.90;;;;;;5048881;28;20458;-73
2023/01/24 07:34:57;;;;;;;27.90;16.50;;;2.90;99.90;;;;;;5045144;28;20808;-74
2023/01/24 07:37:23;;;;;;;37.27;17.70;;;2.90;99.90;;;;;;5051800;28;20205;-73
2023/01/24 07:39:48;;;;;;;31.47;17.10;;;2.90;99.90;;;;;;5051602;28;20490;-73
2023/01/24 07:42:14;;;;;;;28.20;15.30;;;2.90;99.90;;;;;;5043740;28;20212;-73
2023/01/24 07:44:40;;;;;;;28.67;15.77;;;2.90;99.90;;;;;;5050269;28;20188;-72
2023/01/24 07:47:05;;;;;;;33.00;17.40;;;2.90;99.90;;;;;;5052750;28;20190;-72
2023/01/24 07:49:31;;;;;;;32.33;16.07;;;2.90;99.90;;;;;;5051168;28;20191;-73
2023/01/24 07:51:56;;;;;;;30.13;17.20;;;2.90;99.90;;;;;;5051149;28;20795;-73
2023/01/24 07:54:22;;;;;;;27.17;16.17;;;3.00;99.90;;;;;;5050655;28;20188;-73
2023/01/24 07:56:48;;;;;;;26.57;15.23;;;3.00;99.90;;;;;;5051070;28;20223;-74
2023/01/24 07:59:13;;;;;;;29.10;15.60;;;3.00;99.90;;;;;;5035721;28;20186;-74
2023/01/24 08:01:39;;;;;;;33.50;16.37;;;3.00;99.90;;;;;;5049803;28;20454;-73
2023/01/24 08:04:05;;;;;;;37.37;17.23;;;3.00;99.90;;;;;;5049909;28;20639;-73
2023/01/24 08:06:30;;;;;;;26.83;15.50;;;3.10;99.90;;;;;;5040635;28;20528;-72
2023/01/24 08:08:56;;;;;;;30.90;15.90;;;3.10;99.90;;;;;;5031094;28;20198;-73
2023/01/24 08:11:21;;;;;;;29.97;17.03;;;3.10;99.90;;;;;;5045248;28;20681;-72
2023/01/24 08:13:47;;;;;;;29.67;16.77;;;3.10;99.90;;;;;;5049011;28;20192;-73
2023/01/24 08:16:13;;;;;;;36.60;18.57;;;3.10;99.90;;;;;;5049611;28;20216;-73
2023/01/24 08:18:40;;;;;;;30.30;16.77;;;3.20;99.90;;;;;;5050051;28;20535;-73
2023/01/24 08:21:06;;;;;;;30.07;16.37;;;3.20;99.90;;;;;;5041342;28;20197;-74
2023/01/24 08:23:32;;;;;;;35.03;17.93;;;3.20;99.90;;;;;;5048337;28;20839;-73
2023/01/24 08:25:59;;;;;;;30.20;16.40;;;3.10;99.90;;;;;;5050540;28;20974;-74
2023/01/24 08:28:24;;;;;;;30.20;17.03;;;3.10;99.90;;;;;;5050359;28;21098;-72
2023/01/24 08:30:50;;;;;;;30.97;17.00;;;3.20;99.90;;;;;;5050314;28;20982;-74
2023/01/24 08:33:18;;;;;;;32.17;17.53;;;3.10;99.90;;;;;;5050577;28;20227;-74
2023/01/24 08:35:47;;;;;;;30.03;18.40;;;3.10;99.90;;;;;;5050223;28;20582;-73
2023/01/24 08:38:14;;;;;;;32.70;18.03;;;3.00;99.90;;;;;;5050629;28;20512;-74
2023/01/24 08:40:39;;;;;;;29.07;16.40;;;3.00;99.90;;;;;;5049883;28;20850;-72
2023/01/24 08:43:05;;;;;;;28.37;16.40;;;3.00;99.90;;;;;;5044274;28;20524;-74
2023/01/24 08:45:31;;;;;;;29.23;16.23;;;3.10;99.90;;;;;;5048263;28;20275;-73
2023/01/24 08:47:56;;;;;;;34.20;18.10;;;3.10;99.90;;;;;;5042541;28;20533;-74
2023/01/24 08:50:22;;;;;;;29.40;16.60;;;3.10;99.90;;;;;;5050085;28;20195;-73
2023/01/24 08:52:48;;;;;;;33.23;17.20;;;3.20;99.90;;;;;;5050292;28;20459;-74
2023/01/24 08:55:14;;;;;;;29.57;16.40;;;3.20;99.90;;;;;;5043393;28;20654;-74
2023/01/24 08:57:39;;;;;;;30.73;16.77;;;3.20;99.90;;;;;;5041112;28;20476;-73
2023/01/24 09:00:06;;;;;;;30.90;17.23;;;3.10;99.90;;;;;;5050492;28;20432;-73
2023/01/24 09:02:32;;;;;;;27.13;16.87;;;3.20;99.90;;;;;;5049908;28;20322;-74
2023/01/24 09:04:58;;;;;;;26.60;15.17;;;3.20;99.90;;;;;;5040900;28;20435;-73
2023/01/24 09:07:24;;;;;;;30.07;16.77;;;3.20;99.90;;;;;;5050161;28;20440;-73
2023/01/24 09:09:49;;;;;;;27.57;16.60;;;3.20;99.90;;;;;;5042263;28;20277;-73
2023/01/24 09:12:15;;;;;;;33.87;16.43;;;3.10;99.90;;;;;;5050305;28;20454;-74
2023/01/24 09:14:40;;;;;;;31.90;17.70;;;3.20;99.90;;;;;;5034340;28;20196;-73
2023/01/24 09:17:06;;;;;;;26.73;16.20;;;3.20;99.90;;;;;;5054441;28;20672;-73
2023/01/24 09:19:32;;;;;;;30.40;15.87;;;3.30;99.90;;;;;;5053647;28;20195;-74
2023/01/24 09:21:57;;;;;;;28.13;15.93;;;3.30;99.90;;;;;;5053968;28;20201;-73
2023/01/24 09:24:24;;;;;;;26.57;14.77;;;3.30;99.90;;;;;;5053220;28;20182;-73
2023/01/24 09:26:49;;;;;;;26.87;16.03;;;3.30;99.90;;;;;;5042612;28;20195;-74
2023/01/24 09:29:15;;;;;;;30.20;15.77;;;3.40;99.90;;;;;;5049886;28;20817;-74
2023/01/24 09:31:40;;;;;;;25.20;15.20;;;3.40;99.90;;;;;;5053145;28;20217;-72
2023/01/24 09:34:06;;;;;;;30.33;16.03;;;3.40;99.90;;;;;;5047631;28;20563;-74
2023/01/24 09:36:31;;;;;;;34.83;16.70;;;3.40;99.90;;;;;;5051343;28;20216;-73
2023/01/24 09:38:57;;;;;;;25.13;15.70;;;3.40;99.90;;;;;;5053625;28;20193;-73
2023/01/24 09:41:50;;;;;;;28.90;14.30;;;3.40;99.90;;;;;;5053290;28;20719;-72
2023/01/24 09:44:36;;;;;;;24.50;14.30;;;3.40;99.90;;;;;;5045176;28;20417;-73
2023/01/24 09:47:14;;;;;;;25.47;13.77;;;3.40;99.90;;;;;;5053685;28;20438;-73
2023/01/24 09:50:01;;;;;;;28.43;14.50;;;3.40;99.90;;;;;;5050666;28;23082;-72
2023/01/24 09:52:38;;;;;;;23.47;13.70;;;3.40;99.90;;;;;;5050408;28;20453;-73
2023/01/24 09:55:25;;;;;;;26.07;13.20;;;3.40;99.90;;;;;;5047432;28;20538;-73
2023/01/24 09:58:00;;;;;;;26.20;13.60;;;3.40;99.90;;;;;;5045904;28;20467;-73
2023/01/24 10:00:31;;;;;;;21.60;13.20;;;3.40;99.90;;;;;;5052916;28;20418;-73
2023/01/24 10:02:59;;;;;;;22.23;13.00;;;3.50;99.90;;;;;;5053297;28;20425;-74
2023/01/24 10:05:39;;;;;;;21.40;13.00;;;3.60;99.90;;;;;;5052863;28;20455;-72
2023/01/24 10:08:11;;;;;;;19.23;12.67;;;3.50;99.90;;;;;;5045617;28;20431;-73
2023/01/24 10:10:43;;;;;;;23.63;11.83;;;3.50;99.90;;;;;;5044391;28;20438;-73
2023/01/24 10:13:16;;;;;;;24.37;12.73;;;3.50;99.90;;;;;;5053098;28;20429;-73
2023/01/24 10:16:36;;;;;;;22.10;12.70;;;3.60;99.90;;;;;;5053057;28;20434;-75
2023/01/24 10:19:29;;;;;;;22.87;12.43;;;3.60;99.90;;;;;;5007348;28;20465;-73
2023/01/24 10:22:25;;;;;;;20.53;12.10;;;3.60;99.90;;;;;;5045918;28;20442;-74
2023/01/24 10:25:28;;;;;;;17.77;11.90;;;3.60;99.90;;;;;;5051179;28;20455;-73
2023/01/24 10:27:57;;;;;;;22.07;13.40;;;3.60;99.90;;;;;;5044308;28;20439;-73
2023/01/24 10:30:28;;;;;;;27.50;17.23;;;3.70;99.90;;;;;;5052054;28;20439;-72
2023/01/24 10:33:01;;;;;;;56.07;26.90;;;3.60;99.90;;;;;;5044268;28;20450;-73
2023/01/24 10:35:32;;;;;;;48.90;23.93;;;3.70;99.90;;;;;;5051475;28;20434;-74
2023/01/24 10:38:02;;;;;;;24.80;15.10;;;3.70;99.90;;;;;;5045948;28;20494;-73
2023/01/24 10:40:28;;;;;;;26.33;17.07;;;3.80;99.90;;;;;;5052065;28;20917;-73
2023/01/24 10:42:53;;;;;;;25.20;13.17;;;3.90;99.90;;;;;;5052303;28;20434;-73
2023/01/24 10:45:38;;;;;;;16.87;11.73;;;4.00;99.90;;;;;;5052323;28;20197;-73
2023/01/24 10:48:19;;;;;;;20.00;12.27;;;4.10;99.90;;;;;;5052339;28;20239;-73
2023/01/24 10:50:45;;;;;;;22.43;14.37;;;4.10;99.90;;;;;;5043593;28;20832;-72
2023/01/24 10:53:22;;;;;;;19.97;10.90;;;4.10;99.90;;;;;;5043918;28;20420;-73
2023/01/24 10:55:47;;;;;;;20.40;11.87;;;4.10;99.90;;;;;;5044020;28;20424;-73
2023/01/24 10:58:26;;;;;;;21.93;12.63;;;4.00;99.90;;;;;;5052095;28;20571;-73
2023/01/24 11:00:57;;;;;;;40.00;14.77;;;4.00;99.90;;;;;;5043979;28;20813;-73
2023/01/24 11:03:27;;;;;;;40.63;20.93;;;4.00;99.90;;;;;;5051466;28;20451;-72
2023/01/24 11:05:55;;;;;;;28.17;14.33;;;4.00;99.90;;;;;;5051805;28;20424;-73
2023/01/24 11:08:23;;;;;;;22.47;13.30;;;4.00;99.90;;;;;;5052050;28;20512;-74
2023/01/24 11:10:58;;;;;;;25.73;13.57;;;4.00;99.90;;;;;;5051960;28;20453;-73
2023/01/24 11:13:40;;;;;;;19.30;11.50;;;4.10;99.90;;;;;;5043330;28;20428;-73
2023/01/24 11:16:15;;;;;;;24.73;12.53;;;4.00;99.90;;;;;;5052093;28;20467;-73
2023/01/24 11:19:00;;;;;;;22.67;12.57;;;4.00;99.90;;;;;;5051389;28;20464;-74
2023/01/24 11:21:28;;;;;;;22.80;12.43;;;4.10;99.90;;;;;;5051614;28;20455;-72
2023/01/24 11:24:06;;;;;;;32.40;15.57;;;4.00;99.90;;;;;;5051474;28;20434;-74
2023/01/24 11:26:36;;;;;;;20.77;12.43;;;4.00;99.90;;;;;;5051438;28;20932;-73
2023/01/24 11:29:05;;;;;;;25.67;12.23;;;4.00;99.90;;;;;;5051460;28;20773;-73
2023/01/24 11:31:42;;;;;;;24.43;12.00;;;4.00;99.90;;;;;;5050886;28;20455;-74
2023/01/24 11:34:56;;;;;;;20.17;12.60;;;4.00;99.90;;;;;;5051103;28;20439;-74
2023/01/24 11:37:30;;;;;;;17.93;10.20;;;4.00;99.90;;;;;;5008336;28;20998;-71
2023/01/24 11:40:27;;;;;;;29.10;12.80;;;4.10;99.90;;;;;;5044129;28;20424;-74
2023/01/24 11:42:59;;;;;;;17.60;11.87;;;4.00;99.90;;;;;;5036518;28;20931;-73
2023/01/24 11:45:43;;;;;;;21.00;10.93;;;4.00;99.90;;;;;;5050857;28;20416;-72
2023/01/24 11:48:19;;;;;;;19.43;11.60;;;4.00;99.90;;;;;;5043370;28;20433;-74
2023/01/24 11:50:48;;;;;;;105.20;32.80;;;4.00;99.90;;;;;;5050457;28;20443;-73
2023/01/24 11:53:28;;;;;;;21.60;12.33;;;4.00;99.90;;;;;;5050916;28;20443;-74
2023/01/24 11:56:23;;;;;;;23.50;11.00;;;3.90;99.90;;;;;;5050761;28;20439;-74
2023/01/24 11:59:11;;;;;;;18.50;11.60;;;3.90;99.90;;;;;;5050956;28;20416;-74
2023/01/24 12:01:40;;;;;;;16.20;10.73;;;3.90;99.90;;;;;;5050526;28;20451;-73
2023/01/24 12:04:49;;;;;;;17.50;10.00;;;4.00;99.90;;;;;;5050782;28;20434;-74
2023/01/24 12:07:40;;;;;;;16.40;11.60;;;4.10;99.90;;;;;;5051112;28;20582;-73
2023/01/24 12:10:30;;;;;;;21.27;11.07;;;4.10;99.90;;;;;;5050778;28;20784;-74
2023/01/24 12:13:08;;;;;;;15.37;10.73;;;4.10;99.90;;;;;;5050765;28;20999;-74
2023/01/24 12:16:19;;;;;;;18.20;10.80;;;4.00;99.90;;;;;;5042441;28;20434;-73
2023/01/24 12:19:22;;;;;;;17.40;10.77;;;4.00;99.90;;;;;;5033985;28;20476;-71
2023/01/24 12:21:48;;;;;;;18.10;12.10;;;4.00;99.90;;;;;;5049583;28;20463;-73
2023/01/24 12:24:28;;;;;;;18.70;11.47;;;4.10;99.90;;;;;;5050526;28;20428;-73
2023/01/24 12:26:58;;;;;;;18.90;11.30;;;4.20;99.90;;;;;;5051114;28;20420;-73
2023/01/24 12:29:30;;;;;;;15.43;10.20;;;4.20;99.90;;;;;;5050270;28;20515;-71
2023/01/24 12:31:55;;;;;;;16.77;10.10;;;4.20;99.90;;;;;;5042699;28;20877;-72
2023/01/24 12:34:45;;;;;;;20.20;12.73;;;4.20;99.90;;;;;;5050312;28;20421;-73
2023/01/24 12:37:13;;;;;;;20.70;11.13;;;4.20;99.90;;;;;;5050654;28;20202;-73
2023/01/24 12:39:50;;;;;;;15.47;9.80;;;4.20;99.90;;;;;;5042133;28;20839;-73
2023/01/24 12:42:21;;;;;;;15.80;9.97;;;4.20;99.90;;;;;;5049174;28;20538;-74
2023/01/24 12:45:00;;;;;;;18.17;11.00;;;4.20;99.90;;;;;;5038819;28;20445;-74
2023/01/24 12:47:38;;;;;;;17.80;10.23;;;4.20;99.90;;;;;;5030996;28;20861;-73
2023/01/24 12:50:30;;;;;;;17.47;10.53;;;4.20;99.90;;;;;;5035266;28;20441;-73
2023/01/24 12:53:12;;;;;;;15.13;10.67;;;4.10;99.90;;;;;;5040373;28;20530;-74
2023/01/24 12:56:03;;;;;;;18.20;10.30;;;4.10;99.90;;;;;;5054016;28;20459;-72
2023/01/24 12:58:39;;;;;;;14.20;9.90;;;4.10;99.90;;;;;;5047457;28;20951;-73
2023/01/24 13:01:16;;;;;;;21.23;10.40;;;4.10;99.90;;;;;;5054132;28;20809;-73
2023/01/24 13:03:59;;;;;;;16.93;10.47;;;4.10;99.90;;;;;;5053929;28;20415;-73
2023/01/24 13:06:39;;;;;;;17.40;10.93;;;4.10;99.90;;;;;;5053762;28;20420;-73
2023/01/24 13:09:11;;;;;;;17.87;10.40;;;4.10;99.90;;;;;;5043058;28;20443;-72
2023/01/24 13:11:44;;;;;;;14.53;9.27;;;4.10;99.90;;;;;;5053762;28;21035;-73
2023/01/24 13:14:30;;;;;;;17.27;10.33;;;4.10;99.90;;;;;;5054212;28;20495;-73
2023/01/24 13:17:22;;;;;;;10.90;8.27;;;4.10;99.90;;;;;;5037346;28;20474;-73
2023/01/24 13:20:09;;;;;;;19.43;10.60;;;4.10;99.90;;;;;;5053996;28;20417;-73
2023/01/24 13:22:49;;;;;;;14.37;9.23;;;4.10;99.90;;;;;;5053336;28;20443;-72
2023/01/24 13:25:29;;;;;;;18.30;10.30;;;4.10;99.90;;;;;;5053934;28;20922;-73
2023/01/24 13:27:59;;;;;;;13.33;9.80;;;4.00;99.90;;;;;;5047934;28;20459;-73
2023/01/24 13:30:43;;;;;;;15.10;8.77;;;4.10;99.90;;;;;;5044768;28;20440;-74
2023/01/24 13:33:15;;;;;;;11.20;8.60;;;4.10;99.90;;;;;;5054942;28;20419;-74
2023/01/24 13:35:49;;;;;;;13.20;9.53;;;4.00;99.90;;;;;;5054350;28;20440;-73
2023/01/24 13:38:29;;;;;;;16.00;9.97;;;4.10;99.90;;;;;;5041044;28;20841;-73
2023/01/24 13:41:06;;;;;;;15.77;10.50;;;4.00;99.90;;;;;;5046271;28;20438;-74
2023/01/24 13:44:00;;;;;;;17.07;9.97;;;4.00;99.90;;;;;;5046205;28;20427;-74
2023/01/24 13:46:44;;;;;;;15.00;9.00;;;4.00;99.90;;;;;;5044909;28;20424;-72
2023/01/24 13:49:32;;;;;;;16.57;10.33;;;4.00;99.90;;;;;;5043672;28;20435;-73
2023/01/24 13:51:59;;;;;;;15.53;9.47;;;4.00;99.90;;;;;;5039794;28;20440;-74
2023/01/24 13:54:42;;;;;;;16.30;9.03;;;4.00;99.90;;;;;;5044695;28;20801;-71
2023/01/24 13:57:28;;;;;;;11.40;8.90;;;4.00;99.90;;;;;;5049842;28;20477;-73
2023/01/24 14:00:08;;;;;;;15.80;9.40;;;4.00;99.90;;;;;;5045381;28;20506;-73
2023/01/24 14:02:41;;;;;;;15.53;9.70;;;4.00;99.90;;;;;;5037709;28;20495;-73
2023/01/24 14:05:29;;;;;;;21.07;9.80;;;4.00;99.90;;;;;;5053231;28;20427;-73
2023/01/24 14:07:55;;;;;;;14.50;9.30;;;4.00;99.90;;;;;;5047864;28;20434;-74
2023/01/24 14:10:37;;;;;;;17.20;11.57;;;4.00;99.90;;;;;;5053077;28;20422;-73
2023/01/24 14:13:03;;;;;;;16.63;9.57;;;4.00;99.90;;;;;;5052768;28;20927;-73
2023/01/24 14:15:41;;;;;;;13.83;9.23;;;4.00;99.90;;;;;;5048490;28;20428;-74
2023/01/24 14:18:41;;;;;;;18.43;10.17;;;4.00;99.90;;;;;;5036604;28;20469;-74
2023/01/24 14:21:20;;;;;;;18.37;9.87;;;3.90;99.90;;;;;;5046766;28;20480;-73
2023/01/24 14:23:54;;;;;;;16.70;10.03;;;3.90;99.90;;;;;;5038018;28;20438;-73
2023/01/24 14:26:26;;;;;;;13.03;8.90;;;3.90;99.90;;;;;;5045035;28;20467;-73
2023/01/24 14:28:55;;;;;;;16.33;9.40;;;3.90;99.90;;;;;;5047981;28;20799;-71
2023/01/24 14:31:30;;;;;;;15.47;9.40;;;3.90;99.90;;;;;;5052450;28;20947;-73
2023/01/24 14:34:13;;;;;;;15.03;9.83;;;3.90;99.90;;;;;;5035905;28;20426;-74
2023/01/24 14:36:39;;;;;;;17.97;10.30;;;3.90;99.90;;;;;;5050999;28;20470;-73
2023/01/24 14:39:24;;;;;;;14.70;10.07;;;3.90;99.90;;;;;;5047851;28;20435;-73